createdAt,value
2022-09-20T00:01:38.413Z,95.54
2022-09-20T00:06:44.115Z,95.50
2022-09-20T00:11:51.214Z,95.23
2022-09-20T00:16:56.980Z,95.25
2022-09-20T00:22:02.848Z,95.60
2022-09-20T00:27:08.646Z,95.90
2022-09-20T00:32:14.479Z,96.17
2022-09-20T00:37:20.235Z,96.46
2022-09-20T00:42:30.986Z,96.59
2022-09-20T00:47:41.951Z,96.51
2022-09-20T00:52:52.829Z,96.76
2022-09-20T00:58:00.017Z,96.68
2022-09-20T01:03:10.625Z,96.43
2022-09-20T01:08:17.186Z,96.58
2022-09-20T01:13:23.059Z,96.54
2022-09-20T01:18:31.950Z,96.34
2022-09-20T01:23:49.169Z,96.51
2022-09-20T01:29:03.201Z,96.61
2022-09-20T01:34:13.264Z,96.52
2022-09-20T01:39:29.755Z,96.82
2022-09-20T01:44:44.721Z,96.80
2022-09-20T01:49:57.415Z,96.87
2022-09-20T01:55:52.069Z,97.21
2022-09-20T02:01:24.914Z,97.26
2022-09-20T02:06:53.946Z,97.35
2022-09-20T02:12:19.536Z,96.96
2022-09-20T02:17:34.654Z,96.92
2022-09-20T02:22:52.083Z,97.26
2022-09-20T02:28:13.090Z,97.63
2022-09-20T02:33:34.802Z,98.14
2022-09-20T02:38:59.172Z,98.63
2022-09-20T02:44:15.340Z,99.07
2022-09-20T02:49:29.548Z,99.17
2022-09-20T02:54:46.009Z,99.06
2022-09-20T02:59:59.502Z,98.84
2022-09-20T03:05:15.950Z,98.91
2022-09-20T03:10:28.121Z,98.92
2022-09-20T03:15:47.261Z,98.73
2022-09-20T03:21:07.217Z,98.67
2022-09-20T03:26:24.484Z,98.59
2022-09-20T03:31:47.531Z,98.61
2022-09-20T03:37:08.895Z,98.63
2022-09-20T03:42:18.933Z,98.46
2022-09-20T03:47:40.592Z,98.36
2022-09-20T03:53:12.782Z,98.17
2022-09-20T03:58:34.435Z,98.01
2022-09-20T04:03:53.323Z,97.95
2022-09-20T04:09:24.269Z,98.04
2022-09-20T04:14:37.143Z,97.98
2022-09-20T04:19:50.949Z,98.11
2022-09-20T04:25:01.177Z,97.96
2022-09-20T04:30:18.360Z,97.72
2022-09-20T04:35:55.252Z,97.79
2022-09-20T04:41:20.700Z,97.70
2022-09-20T04:47:06.064Z,97.51
2022-09-20T04:52:44.744Z,97.55
2022-09-20T04:58:21.730Z,97.36
2022-09-20T05:03:54.173Z,97.42
2022-09-20T05:09:44.661Z,97.27
2022-09-20T05:15:08.218Z,97.15
2022-09-20T05:20:45.903Z,96.85
2022-09-20T05:26:08.183Z,96.81
2022-09-20T05:31:22.175Z,96.47
2022-09-20T05:36:40.633Z,96.14
2022-09-20T05:41:54.879Z,95.99
2022-09-20T05:47:10.300Z,95.89
2022-09-20T05:52:41.971Z,95.73
2022-09-20T05:58:02.998Z,95.40
2022-09-20T06:03:18.854Z,95.23
2022-09-20T06:08:43.531Z,95.06
2022-09-20T06:14:11.710Z,94.86
2022-09-20T06:19:27.405Z,94.88
2022-09-20T06:24:43.087Z,94.25
2022-09-20T06:29:53.283Z,93.97
2022-09-20T06:35:02.589Z,93.67
2022-09-20T06:40:50.022Z,93.22
2022-09-20T06:45:55.900Z,93.13
2022-09-20T06:51:02.688Z,92.28
2022-09-20T06:56:14.482Z,91.76
2022-09-20T07:01:29.616Z,91.41
2022-09-20T07:06:36.427Z,90.83
2022-09-20T07:11:43.190Z,90.26
2022-09-20T07:16:49.203Z,90.30
2022-09-20T07:21:55.309Z,89.69
2022-09-20T07:27:03.491Z,89.84
2022-09-20T07:32:09.622Z,89.61
2022-09-20T07:37:16.564Z,88.91
2022-09-20T07:42:22.322Z,89.03
2022-09-20T07:47:31.951Z,89.09
2022-09-20T07:52:37.821Z,89.28
2022-09-20T07:57:43.621Z,88.82
2022-09-20T08:02:57.254Z,87.98
2022-09-20T08:08:03.333Z,86.95
2022-09-20T08:18:35.519Z,86.17
2022-09-20T08:23:42.989Z,86.01
2022-09-20T08:28:52.261Z,85.77
2022-09-20T08:33:59.201Z,85.16
2022-09-20T08:44:35.697Z,84.36
2022-09-20T08:49:46.141Z,84.53
2022-09-20T08:54:52.757Z,84.30
2022-09-20T08:59:59.796Z,84.20
2022-09-20T09:05:17.120Z,84.45
2022-09-20T09:10:22.776Z,84.57
2022-09-20T09:15:32.698Z,84.62
2022-09-20T09:20:47.246Z,84.82
2022-09-20T09:25:54.649Z,85.19
2022-09-20T09:31:20.647Z,84.37
2022-09-20T09:36:27.462Z,83.75
2022-09-20T09:41:35.733Z,84.23
2022-09-20T09:46:41.555Z,84.70
2022-09-20T09:52:04.022Z,84.49
2022-09-20T09:57:33.754Z,84.58
2022-09-20T10:03:20.934Z,83.47
2022-09-20T10:08:38.097Z,83.19
2022-09-20T10:13:56.814Z,80.83
2022-09-20T10:19:10.283Z,80.48
2022-09-20T10:24:30.805Z,80.93
2022-09-20T10:29:49.918Z,81.10
2022-09-20T10:35:19.927Z,81.29
2022-09-20T10:40:53.191Z,81.27
2022-09-20T10:51:49.041Z,73.36
2022-09-20T10:57:09.050Z,71.32
2022-09-20T11:02:41.616Z,69.54
2022-09-20T11:07:58.299Z,69.00
2022-09-20T11:13:08.615Z,68.15
2022-09-20T11:18:23.001Z,68.35
2022-09-20T11:23:38.138Z,67.86
2022-09-20T11:28:48.975Z,68.12
2022-09-20T11:34:00.562Z,69.07
2022-09-20T11:39:13.575Z,69.73
2022-09-20T11:44:21.855Z,70.13
2022-09-20T11:49:33.965Z,70.27
2022-09-20T11:55:18.925Z,69.65
2022-09-20T12:00:32.437Z,69.53
2022-09-20T12:05:41.599Z,70.28
2022-09-20T12:11:04.121Z,69.01
2022-09-20T12:16:15.787Z,67.60
2022-09-20T12:21:22.546Z,67.09
2022-09-20T12:27:43.174Z,66.17
2022-09-20T12:32:52.412Z,64.52
2022-09-20T12:38:16.929Z,63.25
2022-09-20T12:43:23.843Z,63.69
2022-09-20T12:48:37.781Z,65.09
2022-09-20T12:53:43.719Z,66.04
2022-09-20T12:58:54.603Z,66.36
2022-09-20T13:04:35.813Z,66.52
2022-09-20T13:09:40.266Z,66.74
2022-09-20T13:14:47.283Z,67.17
2022-09-20T13:19:56.400Z,67.58
2022-09-20T13:25:05.201Z,67.52
2022-09-20T13:30:21.060Z,67.90
2022-09-20T13:35:31.810Z,68.06
2022-09-20T13:40:40.113Z,68.49
2022-09-20T13:45:47.215Z,68.27
2022-09-20T13:50:53.935Z,68.51
2022-09-20T13:56:00.758Z,69.58
2022-09-20T14:01:20.389Z,70.80
2022-09-20T14:06:28.256Z,72.13
2022-09-20T14:11:36.956Z,72.69
2022-09-20T14:16:46.644Z,73.50
2022-09-20T14:21:52.818Z,73.35
2022-09-20T14:27:06.806Z,73.37
2022-09-20T14:32:24.954Z,72.65
2022-09-20T14:37:33.405Z,72.58
2022-09-20T14:42:48.971Z,72.20
2022-09-20T14:48:01.443Z,71.81
2022-09-20T14:53:23.385Z,69.80
2022-09-20T14:58:29.239Z,68.94
2022-09-20T15:03:38.936Z,68.81
2022-09-20T15:08:46.773Z,70.27
2022-09-20T15:13:52.818Z,71.83
2022-09-20T15:18:59.193Z,73.35
2022-09-20T15:24:05.292Z,74.35
2022-09-20T15:29:16.740Z,75.88
2022-09-20T15:34:22.945Z,77.06
2022-09-20T15:39:28.632Z,77.59
2022-09-20T15:44:34.481Z,77.94
2022-09-20T15:49:40.328Z,78.27
2022-09-20T15:54:46.131Z,78.65
2022-09-20T15:59:52.126Z,79.22
2022-09-20T16:04:59.538Z,80.04
2022-09-20T16:10:05.932Z,80.66
2022-09-20T16:15:12.895Z,81.43
2022-09-20T16:20:18.629Z,82.19
2022-09-20T16:25:24.350Z,83.03
2022-09-20T16:30:30.246Z,83.83
2022-09-20T16:35:36.024Z,84.49
2022-09-20T16:40:51.521Z,84.77
2022-09-20T16:46:03.586Z,85.23
2022-09-20T16:51:09.724Z,85.66
2022-09-20T16:56:23.262Z,86.35
2022-09-20T17:01:29.848Z,86.71
2022-09-20T17:06:37.181Z,86.74
2022-09-20T17:11:45.758Z,86.87
2022-09-20T17:16:51.579Z,86.96
2022-09-20T17:21:57.378Z,87.02
2022-09-20T17:27:04.101Z,87.16
2022-09-20T17:32:10.113Z,87.04
2022-09-20T17:37:16.245Z,87.35
2022-09-20T17:42:22.172Z,87.49
2022-09-20T17:47:27.902Z,87.63
2022-09-20T17:52:33.632Z,87.71
2022-09-20T17:57:39.413Z,87.81
2022-09-20T18:02:45.126Z,88.07
2022-09-20T18:07:53.075Z,88.12
2022-09-20T18:12:58.987Z,88.22
2022-09-20T18:18:05.114Z,88.10
2022-09-20T18:23:11.217Z,88.45
2022-09-20T18:28:18.054Z,88.73
2022-09-20T18:33:24.942Z,88.99
2022-09-20T18:38:31.202Z,89.03
2022-09-20T18:43:37.012Z,89.55
2022-09-20T18:48:44.057Z,89.41
2022-09-20T18:53:50.105Z,89.36
2022-09-20T18:58:58.070Z,89.21
2022-09-20T19:04:13.707Z,89.37
2022-09-20T19:09:29.423Z,88.91
2022-09-20T19:14:54.632Z,89.96
2022-09-20T19:20:12.856Z,90.52
2022-09-20T19:25:25.790Z,91.13
2022-09-20T19:30:32.907Z,91.51
2022-09-20T19:35:43.387Z,91.86
2022-09-20T19:41:02.021Z,92.27
2022-09-20T19:46:20.959Z,92.63
2022-09-20T19:51:29.187Z,92.38
2022-09-20T19:56:47.252Z,92.15
2022-09-20T20:01:54.014Z,92.20
2022-09-20T20:07:08.710Z,91.90
2022-09-20T20:12:21.524Z,91.54
2022-09-20T20:17:44.216Z,90.97
2022-09-20T20:23:29.022Z,90.89
2022-09-20T20:28:35.140Z,91.25
2022-09-20T20:33:41.446Z,91.28
2022-09-20T20:38:50.390Z,90.90
2022-09-20T20:43:57.259Z,91.16
2022-09-20T20:49:03.459Z,91.44
2022-09-20T20:54:10.396Z,91.51
2022-09-20T20:59:17.231Z,91.62
2022-09-20T21:04:24.977Z,91.43
2022-09-20T21:09:31.978Z,91.73
2022-09-20T21:14:38.160Z,91.74
2022-09-20T21:19:44.082Z,91.86
2022-09-20T21:24:50.412Z,92.53
2022-09-20T21:29:56.602Z,92.91
2022-09-20T21:35:02.314Z,92.62
2022-09-20T21:40:10.299Z,92.23
2022-09-20T21:45:16.244Z,92.14
2022-09-20T21:50:22.798Z,91.89
2022-09-20T21:55:28.491Z,91.59
2022-09-20T22:00:35.818Z,91.90
2022-09-20T22:05:49.272Z,91.96
2022-09-20T22:10:58.408Z,91.87
2022-09-20T22:16:10.121Z,92.12
2022-09-20T22:21:17.667Z,91.93
2022-09-20T22:26:24.163Z,91.61
2022-09-20T22:31:46.748Z,91.65
2022-09-20T22:36:53.885Z,91.94
2022-09-20T22:41:59.919Z,92.14
2022-09-20T22:47:06.605Z,92.18
2022-09-20T22:52:12.509Z,92.04
2022-09-20T22:57:18.245Z,92.33
2022-09-20T23:02:23.966Z,93.15
2022-09-20T23:07:29.811Z,93.55
2022-09-20T23:12:35.612Z,94.22
2022-09-20T23:17:43.385Z,94.48
2022-09-20T23:22:49.127Z,94.80
2022-09-20T23:27:55.768Z,94.40
2022-09-20T23:33:01.702Z,94.30
2022-09-20T23:38:08.037Z,94.24
2022-09-20T23:43:13.687Z,94.34
2022-09-20T23:48:19.370Z,94.61
2022-09-20T23:53:26.212Z,94.47
2022-09-20T23:58:31.966Z,94.60
